createdAt,value
2016-07-22T00:00:29.487Z,24.23
2016-07-22T00:01:28.758Z,24.2
2016-07-22T00:02:28.732Z,24.26
2016-07-22T00:03:28.719Z,24.26
2016-07-22T00:04:28.703Z,24.16
2016-07-22T00:05:28.686Z,24.14
2016-07-22T00:06:28.675Z,24.21
2016-07-22T00:07:28.663Z,24.17
2016-07-22T00:08:28.643Z,24.18
2016-07-22T00:09:28.632Z,24.28
2016-07-22T00:10:28.613Z,24.21
2016-07-22T00:11:28.600Z,24.21
2016-07-22T00:12:28.586Z,24.23
2016-07-22T00:13:28.573Z,24.21
2016-07-22T00:14:28.559Z,24.2
2016-07-22T00:15:28.539Z,24.26
2016-07-22T00:16:28.528Z,24.26
2016-07-22T00:17:28.513Z,24.28
2016-07-22T00:18:28.498Z,24.26
2016-07-22T00:19:28.484Z,24.24
2016-07-22T00:20:28.469Z,24.17
2016-07-22T00:21:28.454Z,24.16
2016-07-22T00:22:28.438Z,24.16
2016-07-22T00:23:28.425Z,24.18
2016-07-22T00:24:28.411Z,24.17
2016-07-22T00:25:28.394Z,24.17
2016-07-22T00:26:28.380Z,24.18
2016-07-22T00:27:28.366Z,24.11
2016-07-22T00:28:28.351Z,24.16
2016-07-22T00:29:28.337Z,24.16
2016-07-22T00:30:28.322Z,24.13
2016-07-22T00:31:28.304Z,24.08
2016-07-22T00:32:28.294Z,24.13
2016-07-22T00:33:28.276Z,24.03
2016-07-22T00:34:28.264Z,24.06
2016-07-22T00:35:28.249Z,24.06
2016-07-22T00:36:28.233Z,24.02
2016-07-22T00:37:28.219Z,23.96
2016-07-22T00:38:28.203Z,23.98
2016-07-22T00:39:28.193Z,24.02
2016-07-22T00:40:28.172Z,24.02
2016-07-22T00:42:44.587Z,24.03
2016-07-22T00:43:28.131Z,23.98
2016-07-22T00:44:28.115Z,24.01
2016-07-22T00:45:28.100Z,24.03
2016-07-22T00:46:28.086Z,24.01
2016-07-22T00:47:28.067Z,23.92
2016-07-22T00:48:28.055Z,23.93
2016-07-22T00:49:28.036Z,23.93
2016-07-22T00:50:28.039Z,23.91
2016-07-22T00:51:28.014Z,23.92
2016-07-22T00:52:28.006Z,23.84
2016-07-22T00:53:27.983Z,23.91
2016-07-22T00:54:27.965Z,23.96
2016-07-22T00:55:27.952Z,23.93
2016-07-22T00:56:27.946Z,23.95
2016-07-22T00:57:27.923Z,23.95
2016-07-22T00:58:27.906Z,23.93
2016-07-22T00:59:27.904Z,23.95
2016-07-22T01:00:27.877Z,23.8
2016-07-22T01:01:27.863Z,23.87
2016-07-22T01:02:27.853Z,23.86
2016-07-22T01:03:27.830Z,23.91
2016-07-22T01:04:27.818Z,23.8
2016-07-22T01:05:27.804Z,23.96
2016-07-22T01:06:27.793Z,23.83
2016-07-22T01:07:27.774Z,23.78
2016-07-22T01:08:27.761Z,23.8
2016-07-22T01:09:27.747Z,23.81
2016-07-22T01:10:27.737Z,23.74
2016-07-22T01:11:27.715Z,23.74
2016-07-22T01:12:27.703Z,23.83
2016-07-22T01:13:27.687Z,23.73
2016-07-22T01:14:27.670Z,23.66
2016-07-22T01:15:27.655Z,23.65
2016-07-22T01:16:27.654Z,23.68
2016-07-22T01:17:27.622Z,23.73
2016-07-22T01:18:27.612Z,23.66
2016-07-22T01:19:27.595Z,23.63
2016-07-22T01:20:27.583Z,23.62
2016-07-22T01:21:27.564Z,23.69
2016-07-22T01:22:27.548Z,23.66
2016-07-22T01:23:27.537Z,23.76
2016-07-22T01:24:27.532Z,23.68
2016-07-22T01:25:27.506Z,23.65
2016-07-22T01:26:27.488Z,23.63
2016-07-22T01:27:27.479Z,23.68
2016-07-22T01:28:27.460Z,23.68
2016-07-22T01:29:27.441Z,23.68
2016-07-22T01:30:27.430Z,23.59
2016-07-22T01:31:27.414Z,23.61
2016-07-22T01:32:27.402Z,23.71
2016-07-22T01:33:27.383Z,23.66
2016-07-22T01:34:27.369Z,23.58
2016-07-22T01:35:27.355Z,23.63
2016-07-22T01:36:27.336Z,23.63
2016-07-22T01:37:27.327Z,23.68
2016-07-22T01:38:27.321Z,23.59
2016-07-22T01:39:27.296Z,23.56
2016-07-22T01:40:27.279Z,23.66
2016-07-22T01:41:27.262Z,23.65
2016-07-22T01:42:27.250Z,23.55
2016-07-22T01:43:27.238Z,23.61
2016-07-22T01:44:27.220Z,23.62
2016-07-22T01:45:27.214Z,23.56
2016-07-22T01:46:27.185Z,23.58
2016-07-22T01:47:27.173Z,23.59
2016-07-22T01:48:27.158Z,23.59
2016-07-22T01:49:27.147Z,23.56
2016-07-22T01:50:27.134Z,23.59
2016-07-22T01:51:27.115Z,23.58
2016-07-22T01:52:27.096Z,23.59
2016-07-22T01:53:27.082Z,23.5
2016-07-22T01:54:27.066Z,23.5
2016-07-22T01:55:27.051Z,23.55
2016-07-22T01:56:27.036Z,23.48
2016-07-22T01:57:27.024Z,23.5
2016-07-22T01:58:27.005Z,23.56
2016-07-22T01:59:27.000Z,23.44
2016-07-22T02:00:26.981Z,23.46
2016-07-22T02:01:26.964Z,23.41
2016-07-22T02:02:26.944Z,23.41
2016-07-22T02:03:26.951Z,23.44
2016-07-22T02:04:26.915Z,23.41
2016-07-22T02:05:26.898Z,23.41
2016-07-22T02:06:26.885Z,23.43
2016-07-22T02:07:26.870Z,23.4
2016-07-22T02:08:26.854Z,23.39
2016-07-22T02:09:26.840Z,23.39
2016-07-22T02:10:26.827Z,23.44
2016-07-22T02:11:26.811Z,23.41
2016-07-22T02:12:26.793Z,23.39
2016-07-22T02:13:26.782Z,23.31
2016-07-22T02:14:26.769Z,23.31
2016-07-22T02:15:26.751Z,23.31
2016-07-22T02:16:26.734Z,23.34
2016-07-22T02:17:26.718Z,23.34
2016-07-22T02:18:26.705Z,23.31
2016-07-22T02:19:26.687Z,23.31
2016-07-22T02:20:26.675Z,23.32
2016-07-22T02:21:26.656Z,23.36
2016-07-22T02:22:26.645Z,23.27
2016-07-22T02:23:26.627Z,23.27
2016-07-22T02:24:26.611Z,23.18
2016-07-22T02:25:26.598Z,23.23
2016-07-22T02:26:26.583Z,23.13
2016-07-22T02:27:26.567Z,23.2
2016-07-22T02:28:26.553Z,23.15
2016-07-22T02:29:26.536Z,23.21
2016-07-22T02:30:26.520Z,23.23
2016-07-22T02:31:26.502Z,23.17
2016-07-22T02:32:26.490Z,23.28
2016-07-22T02:33:27.167Z,23.21
2016-07-22T02:34:26.461Z,23.12
2016-07-22T02:35:26.442Z,23.21
2016-07-22T02:36:26.427Z,23.15
2016-07-22T02:37:26.413Z,23.17
2016-07-22T02:38:26.396Z,23.21
2016-07-22T02:39:26.380Z,23.15
2016-07-22T02:40:26.369Z,23.24
2016-07-22T02:41:26.357Z,23.13
2016-07-22T02:42:26.386Z,23.2
2016-07-22T02:43:26.317Z,23.18
2016-07-22T02:44:26.308Z,23.15
2016-07-22T02:45:26.289Z,23.2
2016-07-22T02:46:26.274Z,23.17
2016-07-22T02:47:26.259Z,23.23
2016-07-22T02:48:26.242Z,23.17
2016-07-22T02:49:26.233Z,23.18
2016-07-22T02:50:26.214Z,23.17
2016-07-22T02:51:26.198Z,23.21
2016-07-22T02:52:26.178Z,23.09
2016-07-22T02:53:26.167Z,23.15
2016-07-22T02:54:26.154Z,23.17
2016-07-22T02:55:26.134Z,23.17
2016-07-22T02:56:26.120Z,23.17
2016-07-22T02:57:26.101Z,23.13
2016-07-22T02:58:26.088Z,23.17
2016-07-22T02:59:26.071Z,23.1
2016-07-22T03:00:26.060Z,23.08
2016-07-22T03:01:26.042Z,23.13
2016-07-22T03:02:26.027Z,23.02
2016-07-22T03:03:26.011Z,23.02
2016-07-22T03:04:25.993Z,23.12
2016-07-22T03:05:25.979Z,23.1
2016-07-22T03:06:25.961Z,23.09
2016-07-22T03:07:25.947Z,23.15
2016-07-22T03:08:25.935Z,23.12
2016-07-22T03:09:25.915Z,23.17
2016-07-22T03:10:25.906Z,23.23
2016-07-22T03:11:25.887Z,23.13
2016-07-22T03:12:25.880Z,23.17
2016-07-22T03:13:25.862Z,23.15
2016-07-22T03:14:25.843Z,23.23
2016-07-22T03:15:25.822Z,23.25
2016-07-22T03:16:25.807Z,23.28
2016-07-22T03:17:25.795Z,23.28
2016-07-22T03:18:25.775Z,23.15
2016-07-22T03:19:25.762Z,23.23
2016-07-22T03:20:25.747Z,23.12
2016-07-22T03:21:25.729Z,23.12
2016-07-22T03:22:25.715Z,23.17
2016-07-22T03:23:25.699Z,23.18
2016-07-22T03:24:25.683Z,23.13
2016-07-22T03:25:25.671Z,23.18
2016-07-22T03:26:25.654Z,23.34
2016-07-22T03:27:25.643Z,23.34
2016-07-22T03:28:25.623Z,23.23
2016-07-22T03:29:25.616Z,23.12
2016-07-22T03:30:25.594Z,23.2
2016-07-22T03:31:25.580Z,23.17
2016-07-22T03:32:25.560Z,23.21
2016-07-22T03:33:25.545Z,23.17
2016-07-22T03:34:25.532Z,23.15
2016-07-22T03:35:25.515Z,23.13
2016-07-22T03:36:25.501Z,23.17
2016-07-22T03:37:25.481Z,23.17
2016-07-22T03:38:25.467Z,23.15
2016-07-22T03:39:25.452Z,23.13
2016-07-22T03:40:25.440Z,23.15
2016-07-22T03:41:25.423Z,23.15
2016-07-22T03:42:25.408Z,23.15
2016-07-22T03:43:25.391Z,23.23
2016-07-22T03:44:25.376Z,23.15
2016-07-22T03:45:25.373Z,23.2
2016-07-22T03:46:25.347Z,23.2
2016-07-22T03:47:25.329Z,23.32
2016-07-22T03:48:25.315Z,23.31
2016-07-22T03:49:25.311Z,23.36
2016-07-22T03:50:25.287Z,23.24
2016-07-22T03:51:25.275Z,23.25
2016-07-22T03:52:25.253Z,23.34
2016-07-22T03:53:25.240Z,23.31
2016-07-22T03:54:25.224Z,23.32
2016-07-22T03:55:25.207Z,23.34
2016-07-22T03:56:25.194Z,23.34
2016-07-22T03:57:25.177Z,23.27
2016-07-22T03:58:25.158Z,23.28
2016-07-22T03:59:25.148Z,23.34
2016-07-22T04:00:25.130Z,23.37
2016-07-22T04:01:25.115Z,23.32
2016-07-22T04:02:25.836Z,23.31
2016-07-22T04:03:25.776Z,23.34
2016-07-22T04:04:25.073Z,23.34
2016-07-22T04:05:25.055Z,23.32
2016-07-22T04:06:25.038Z,23.41
2016-07-22T04:07:25.025Z,23.36
2016-07-22T04:08:25.008Z,23.34
2016-07-22T04:09:24.995Z,23.41
2016-07-22T04:10:24.981Z,23.44
2016-07-22T04:11:24.971Z,23.46
2016-07-22T04:12:24.948Z,23.4
2016-07-22T04:13:24.930Z,23.41
2016-07-22T04:14:24.916Z,23.4
2016-07-22T04:15:24.902Z,23.36
2016-07-22T04:16:24.887Z,23.44
2016-07-22T04:17:24.873Z,23.51
2016-07-22T04:18:24.854Z,23.44
2016-07-22T04:19:24.842Z,23.47
2016-07-22T04:20:24.825Z,23.51
2016-07-22T04:21:24.808Z,23.56
2016-07-22T04:22:24.797Z,23.51
2016-07-22T04:23:24.779Z,23.61
2016-07-22T04:24:24.766Z,23.59
2016-07-22T04:25:24.757Z,23.61
2016-07-22T04:26:24.736Z,23.59
2016-07-22T04:27:24.721Z,23.69
2016-07-22T04:28:24.704Z,23.62
2016-07-22T04:29:24.691Z,23.65
2016-07-22T04:30:24.677Z,23.61
2016-07-22T04:31:24.661Z,23.61
2016-07-22T04:32:24.646Z,23.65
2016-07-22T04:33:24.632Z,23.56
2016-07-22T04:34:24.614Z,23.58
2016-07-22T04:35:24.604Z,23.58
2016-07-22T04:36:24.585Z,23.69
2016-07-22T04:37:24.572Z,23.56
2016-07-22T04:38:24.555Z,23.56
2016-07-22T04:39:24.539Z,23.62
2016-07-22T04:40:24.528Z,23.77
2016-07-22T04:41:24.511Z,23.61
2016-07-22T04:42:24.496Z,23.63
2016-07-22T04:43:24.485Z,23.68
2016-07-22T04:44:24.467Z,23.78
2016-07-22T04:45:24.451Z,23.77
2016-07-22T04:46:24.437Z,23.8
2016-07-22T04:47:24.421Z,23.77
2016-07-22T04:48:24.406Z,23.77
2016-07-22T04:49:24.389Z,23.81
2016-07-22T04:50:24.379Z,23.83
2016-07-22T04:51:24.361Z,23.83
2016-07-22T04:52:24.358Z,23.81
2016-07-22T04:53:24.336Z,23.8
2016-07-22T04:54:24.320Z,23.83
2016-07-22T04:55:24.306Z,23.87
2016-07-22T04:56:24.287Z,23.92
2016-07-22T04:57:24.276Z,23.95
2016-07-22T04:58:24.267Z,23.99
2016-07-22T04:59:24.249Z,23.96
2016-07-22T05:00:24.237Z,24.03
2016-07-22T05:01:24.214Z,24.02
2016-07-22T05:02:24.203Z,23.99
2016-07-22T05:03:24.186Z,24.1
2016-07-22T05:04:24.174Z,24.06
2016-07-22T05:05:24.161Z,24.11
2016-07-22T05:06:24.144Z,24.1
2016-07-22T05:07:24.132Z,24.1
2016-07-22T05:08:24.115Z,24.1
2016-07-22T05:09:24.102Z,24.14
2016-07-22T05:10:24.089Z,24.11
2016-07-22T05:11:24.069Z,24.2
2016-07-22T05:12:24.057Z,24.21
2016-07-22T05:13:24.042Z,24.2
2016-07-22T05:14:24.033Z,24.21
2016-07-22T05:15:24.016Z,24.17
2016-07-22T05:16:24.003Z,24.21
2016-07-22T05:17:23.987Z,24.23
2016-07-22T05:18:23.971Z,24.21
2016-07-22T05:19:23.959Z,24.32
2016-07-22T05:20:23.943Z,24.28
2016-07-22T05:21:23.930Z,24.24
2016-07-22T05:22:24.610Z,24.24
2016-07-22T05:23:23.900Z,24.21
2016-07-22T05:24:23.899Z,24.16
2016-07-22T05:25:23.875Z,24.28
2016-07-22T05:26:23.858Z,24.18
2016-07-22T05:27:23.848Z,24.2
2016-07-22T05:28:23.837Z,24.32
2016-07-22T05:29:23.819Z,24.26
2016-07-22T05:30:23.804Z,24.3
2016-07-22T05:31:23.791Z,24.2
2016-07-22T05:32:23.777Z,24.21
2016-07-22T05:33:23.761Z,24.21
2016-07-22T05:34:23.748Z,24.1
2016-07-22T05:35:23.732Z,24.1
2016-07-22T05:36:23.715Z,24.03
2016-07-22T05:37:23.703Z,23.99
2016-07-22T05:38:23.692Z,23.92
2016-07-22T05:39:23.677Z,23.8
2016-07-22T05:40:23.661Z,23.81
2016-07-22T05:41:23.646Z,23.78
2016-07-22T05:42:23.635Z,23.77
2016-07-22T05:43:23.619Z,23.76
2016-07-22T05:44:23.607Z,23.76
2016-07-22T05:45:23.592Z,23.81
2016-07-22T05:46:23.586Z,23.77
2016-07-22T05:47:23.611Z,23.76
2016-07-22T05:48:23.546Z,23.69
2016-07-22T05:49:23.534Z,23.8
2016-07-22T05:50:23.522Z,23.77
2016-07-22T05:51:23.502Z,23.91
2016-07-22T05:52:23.491Z,23.91
2016-07-22T05:53:23.473Z,23.98
2016-07-22T05:54:23.461Z,24.01
2016-07-22T05:55:23.445Z,24.13
2016-07-22T05:56:23.433Z,24.13
2016-07-22T05:57:23.422Z,24.16
2016-07-22T05:58:23.407Z,24.24
2016-07-22T05:59:23.393Z,24.3
2016-07-22T06:00:23.379Z,24.32
2016-07-22T06:01:23.363Z,24.42
2016-07-22T06:02:23.350Z,24.51
2016-07-22T06:03:23.335Z,24.53
2016-07-22T06:04:23.326Z,24.61
2016-07-22T06:05:23.306Z,24.69
2016-07-22T06:06:23.301Z,24.81
2016-07-22T06:07:23.284Z,24.86
2016-07-22T06:08:23.270Z,24.89
2016-07-22T06:09:23.255Z,24.89
2016-07-22T06:10:23.243Z,24.98
2016-07-22T06:11:23.234Z,24.99
2016-07-22T06:12:23.220Z,25.06
2016-07-22T06:13:23.209Z,25.11
2016-07-22T06:14:23.193Z,25.16
2016-07-22T06:15:23.180Z,25.17
2016-07-22T06:16:23.167Z,25.29
2016-07-22T06:17:23.156Z,25.36
2016-07-22T06:18:23.167Z,25.36
2016-07-22T06:19:23.135Z,25.43
2016-07-22T06:20:23.119Z,25.53
2016-07-22T06:21:23.972Z,25.6
2016-07-22T06:22:23.826Z,25.55
2016-07-22T06:23:23.090Z,25.68
2016-07-22T06:24:23.069Z,25.9
2016-07-22T06:25:23.063Z,25.9
2016-07-22T06:26:23.046Z,25.87
2016-07-22T06:27:23.037Z,25.98
2016-07-22T06:28:23.023Z,26.13
2016-07-22T06:29:23.012Z,26.18
2016-07-22T06:30:23.000Z,26.33
2016-07-22T06:31:22.988Z,26.36
2016-07-22T06:32:22.976Z,26.48
2016-07-22T06:33:22.968Z,26.48
2016-07-22T06:34:22.956Z,26.56
2016-07-22T06:35:23.053Z,26.52
2016-07-22T06:36:23.152Z,26.52
2016-07-22T06:37:22.921Z,26.59
2016-07-22T06:38:22.911Z,26.73
2016-07-22T06:39:23.001Z,26.88
2016-07-22T06:40:24.024Z,26.84
2016-07-22T06:41:22.881Z,26.84
2016-07-22T06:42:23.233Z,26.89
2016-07-22T06:43:22.864Z,26.95
2016-07-22T06:44:22.873Z,27.1
2016-07-22T06:45:22.839Z,27.02
2016-07-22T06:46:22.830Z,27.08
2016-07-22T06:47:22.819Z,27.1
2016-07-22T06:48:22.839Z,27.17
2016-07-22T06:49:22.800Z,27.22
2016-07-22T06:50:22.789Z,27.22
2016-07-22T06:51:22.843Z,27.42
2016-07-22T06:52:22.775Z,27.42
2016-07-22T06:53:22.761Z,27.63
2016-07-22T06:54:22.754Z,27.77
2016-07-22T06:55:22.744Z,27.86
2016-07-22T06:56:22.734Z,27.83
2016-07-22T06:57:22.724Z,27.95
2016-07-22T06:58:22.714Z,28
2016-07-22T06:59:22.703Z,28.08
2016-07-22T07:00:22.696Z,28.1
2016-07-22T07:01:22.687Z,28.23
2016-07-22T07:02:22.676Z,28.29
2016-07-22T07:03:22.672Z,28.39
2016-07-22T07:04:22.818Z,28.49
2016-07-22T07:05:23.778Z,28.49
2016-07-22T07:06:22.764Z,28.57
2016-07-22T07:07:22.653Z,28.6
2016-07-22T07:08:22.632Z,28.64
2016-07-22T07:09:22.621Z,28.64
2016-07-22T07:10:22.849Z,28.66
2016-07-22T07:11:22.615Z,28.63
2016-07-22T07:12:22.603Z,28.6
2016-07-22T07:13:22.598Z,28.63
2016-07-22T07:14:22.961Z,28.66
2016-07-22T07:15:22.571Z,28.78
2016-07-22T07:16:22.562Z,28.81
2016-07-22T07:17:22.555Z,28.96
2016-07-22T07:18:22.706Z,29.1
2016-07-22T07:19:22.591Z,29.1
2016-07-22T07:20:22.532Z,29.14
2016-07-22T07:21:23.430Z,29.13
2016-07-22T07:22:22.758Z,29.22
2016-07-22T07:23:22.560Z,29.24
2016-07-22T07:24:24.120Z,29.38
2016-07-22T07:25:23.194Z,29.36
2016-07-22T07:26:22.487Z,29.34
2016-07-22T07:27:22.492Z,29.36
2016-07-22T07:28:22.565Z,29.42
2016-07-22T07:29:22.465Z,29.51
2016-07-22T07:30:22.458Z,29.69
2016-07-22T07:31:23.835Z,29.87
2016-07-22T07:32:23.403Z,29.95
2016-07-22T07:33:22.575Z,30.02
2016-07-22T07:34:22.425Z,30.25
2016-07-22T07:35:22.434Z,30.44
2016-07-22T07:36:23.141Z,30.35
2016-07-22T07:37:22.465Z,30.39
2016-07-22T07:38:22.405Z,30.44
2016-07-22T07:39:22.524Z,30.44
2016-07-22T07:40:22.524Z,30.37
2016-07-22T07:41:22.545Z,30.37
2016-07-22T07:42:22.382Z,30.32
2016-07-22T07:43:22.464Z,30.31
2016-07-22T07:44:23.063Z,30.27
2016-07-22T07:45:22.380Z,30.28
2016-07-22T07:46:23.067Z,30.34
2016-07-22T07:47:22.400Z,30.5
2016-07-22T07:48:22.449Z,30.54
2016-07-22T07:49:22.369Z,30.48
2016-07-22T07:50:22.333Z,30.4
2016-07-22T07:51:22.324Z,30.5
2016-07-22T07:52:23.111Z,30.53
2016-07-22T07:53:22.313Z,30.48
2016-07-22T07:54:22.615Z,30.47
2016-07-22T07:55:22.304Z,30.57
2016-07-22T07:56:22.424Z,30.61
2016-07-22T07:57:22.346Z,30.57
2016-07-22T07:58:22.981Z,30.65
2016-07-22T07:59:22.400Z,30.48
2016-07-22T08:00:22.305Z,30.61
2016-07-22T08:01:22.661Z,30.63
2016-07-22T08:02:22.411Z,30.61
2016-07-22T08:03:22.264Z,30.68
2016-07-22T08:04:24.363Z,30.63
2016-07-22T08:05:22.266Z,30.62
2016-07-22T08:06:23.211Z,30.63
2016-07-22T08:07:22.410Z,30.75
2016-07-22T08:08:23.419Z,30.73
2016-07-22T08:09:22.275Z,30.65
2016-07-22T08:10:22.219Z,30.53
2016-07-22T08:11:22.200Z,30.43
2016-07-22T08:12:22.197Z,30.47
2016-07-22T08:13:22.304Z,30.44
2016-07-22T08:14:22.184Z,30.5
2016-07-22T08:15:22.180Z,30.53
2016-07-22T08:16:22.866Z,30.59
2016-07-22T08:17:22.178Z,30.5
2016-07-22T08:18:22.897Z,30.37
2016-07-22T08:19:23.536Z,30.19
2016-07-22T08:20:22.139Z,30.15
2016-07-22T08:21:22.630Z,29.98
2016-07-22T08:22:23.258Z,29.95
2016-07-22T08:23:22.119Z,29.84
2016-07-22T08:24:22.112Z,29.72
2016-07-22T08:25:22.826Z,29.65
2016-07-22T08:26:23.508Z,29.51
2016-07-22T08:27:23.183Z,29.49
2016-07-22T08:28:22.151Z,29.27
2016-07-22T08:29:22.073Z,29.22
2016-07-22T08:30:22.069Z,29.16
2016-07-22T08:31:22.054Z,29.19
2016-07-22T08:32:22.047Z,29.19
2016-07-22T08:33:22.710Z,29.34
2016-07-22T08:34:22.028Z,29.39
2016-07-22T08:35:22.860Z,29.41
2016-07-22T08:36:22.013Z,29.42
2016-07-22T08:37:22.025Z,29.26
2016-07-22T08:38:21.997Z,29.22
2016-07-22T08:39:22.030Z,29.14
2016-07-22T08:40:22.673Z,29.05
2016-07-22T08:41:22.038Z,29.05
2016-07-22T08:42:22.227Z,29.07
2016-07-22T08:43:21.967Z,29.12
2016-07-22T08:44:21.956Z,28.91
2016-07-22T08:45:21.944Z,28.93
2016-07-22T08:46:21.956Z,28.79
2016-07-22T08:47:21.973Z,28.79
2016-07-22T08:48:22.614Z,28.89
2016-07-22T08:49:21.927Z,28.89
2016-07-22T08:50:21.903Z,29.01
2016-07-22T08:51:21.996Z,29.02
2016-07-22T08:52:21.902Z,28.94
2016-07-22T08:53:21.882Z,28.79
2016-07-22T08:54:21.877Z,28.88
2016-07-22T08:55:21.868Z,28.86
2016-07-22T08:56:21.864Z,28.79
2016-07-22T08:57:21.848Z,28.69
2016-07-22T08:58:22.447Z,28.52
2016-07-22T08:59:23.068Z,28.41
2016-07-22T09:00:22.139Z,28.2
2016-07-22T09:01:22.133Z,28.12
2016-07-22T09:02:22.064Z,28
2016-07-22T09:03:22.365Z,28.02
2016-07-22T09:04:21.828Z,27.9
2016-07-22T09:05:21.788Z,27.9
2016-07-22T09:06:21.779Z,27.92
2016-07-22T09:07:21.770Z,27.87
2016-07-22T09:08:21.763Z,27.82
2016-07-22T09:09:21.757Z,27.82
2016-07-22T09:10:21.746Z,27.71
2016-07-22T09:11:21.738Z,27.71
2016-07-22T09:12:21.838Z,27.63
2016-07-22T09:13:21.715Z,27.59
2016-07-22T09:14:21.887Z,27.55
2016-07-22T09:15:21.709Z,27.49
2016-07-22T09:16:21.686Z,27.52
2016-07-22T09:17:21.678Z,27.54
2016-07-22T09:18:22.063Z,27.54
2016-07-22T09:19:21.659Z,27.39
2016-07-22T09:20:21.649Z,27.37
2016-07-22T09:21:21.642Z,27.29
2016-07-22T09:22:22.445Z,27.33
2016-07-22T09:23:21.624Z,27.27
2016-07-22T09:24:21.613Z,27.29
2016-07-22T09:25:22.895Z,27.37
2016-07-22T09:26:22.705Z,27.3
2016-07-22T09:27:21.622Z,27.33
2016-07-22T09:28:21.803Z,27.3
2016-07-22T09:29:21.867Z,27.3
2016-07-22T09:30:22.204Z,27.22
2016-07-22T09:31:21.573Z,27.25
2016-07-22T09:32:21.539Z,27.14
2016-07-22T09:33:21.851Z,27.03
2016-07-22T09:34:22.359Z,27.08
2016-07-22T09:35:21.509Z,27.11
2016-07-22T09:36:21.506Z,27.12
2016-07-22T09:37:21.487Z,27.11
2016-07-22T09:38:21.480Z,27
2016-07-22T09:39:21.472Z,27.05
2016-07-22T09:40:22.179Z,27.03
2016-07-22T09:41:21.505Z,26.95
2016-07-22T09:42:21.448Z,26.89
2016-07-22T09:43:21.487Z,26.73
2016-07-22T09:44:21.427Z,26.62
2016-07-22T09:45:21.445Z,26.59
2016-07-22T09:46:21.580Z,26.56
2016-07-22T09:47:22.119Z,26.48
2016-07-22T09:48:21.394Z,26.55
2016-07-22T09:49:21.513Z,26.41
2016-07-22T09:50:22.010Z,26.51
2016-07-22T09:51:21.753Z,26.58
2016-07-22T09:52:21.708Z,26.52
2016-07-22T09:53:21.585Z,26.4
2016-07-22T09:54:21.588Z,26.26
2016-07-22T09:55:21.897Z,26.28
2016-07-22T09:56:21.569Z,26.18
2016-07-22T09:57:21.341Z,26.06
2016-07-22T09:58:21.607Z,25.99
2016-07-22T09:59:21.530Z,25.85
2016-07-22T10:00:22.051Z,25.85
2016-07-22T10:01:21.621Z,25.83
2016-07-22T10:02:21.499Z,25.88
2016-07-22T10:03:21.592Z,25.87
2016-07-22T10:04:22.187Z,25.73
2016-07-22T10:05:21.430Z,25.62
2016-07-22T10:06:21.413Z,25.5
2016-07-22T10:07:21.375Z,25.48
2016-07-22T10:08:21.546Z,25.43
2016-07-22T10:09:21.255Z,25.38
2016-07-22T10:10:21.171Z,25.31
2016-07-22T10:11:21.934Z,25.33
2016-07-22T10:12:21.140Z,25.23
2016-07-22T10:13:21.125Z,25.18
2016-07-22T10:14:21.108Z,25.22
2016-07-22T10:15:21.076Z,25.21
2016-07-22T10:16:21.065Z,25.22
2016-07-22T10:17:21.071Z,25.18
2016-07-22T10:18:21.038Z,25.21
2016-07-22T10:19:21.119Z,25.18
2016-07-22T10:20:21.159Z,25.17
2016-07-22T10:21:21.282Z,25.21
2016-07-22T10:22:21.207Z,25.18
2016-07-22T10:23:21.217Z,25.35
2016-07-22T10:24:20.970Z,25.43
2016-07-22T10:25:21.584Z,25.46
2016-07-22T10:26:21.222Z,25.51
2016-07-22T10:27:22.023Z,25.58
2016-07-22T10:28:22.078Z,25.73
2016-07-22T10:29:21.112Z,25.85
2016-07-22T10:30:21.405Z,25.87
2016-07-22T10:31:22.014Z,25.99
2016-07-22T10:32:22.395Z,25.98
2016-07-22T10:33:20.988Z,26.18
2016-07-22T10:34:20.874Z,26.28
2016-07-22T10:35:21.163Z,26.41
2016-07-22T10:36:21.554Z,26.36
2016-07-22T10:37:21.427Z,26.47
2016-07-22T10:38:20.846Z,26.62
2016-07-22T10:39:20.865Z,26.77
2016-07-22T10:40:20.823Z,26.99
2016-07-22T10:41:20.992Z,27.05
2016-07-22T10:42:20.806Z,27.27
2016-07-22T10:43:20.893Z,27.39
2016-07-22T10:44:20.791Z,27.4
2016-07-22T10:45:20.783Z,27.39
2016-07-22T10:46:20.838Z,27.36
2016-07-22T10:47:20.764Z,27.4
2016-07-22T10:48:20.759Z,27.37
2016-07-22T10:49:21.197Z,27.44
2016-07-22T10:50:20.745Z,27.52
2016-07-22T10:51:20.741Z,27.4
2016-07-22T10:52:20.725Z,27.39
2016-07-22T10:53:20.719Z,27.47
2016-07-22T10:54:20.710Z,27.49
2016-07-22T10:55:20.702Z,27.7
2016-07-22T10:56:20.692Z,27.73
2016-07-22T10:57:20.686Z,27.75
2016-07-22T10:58:20.676Z,27.63
2016-07-22T10:59:20.671Z,27.63
2016-07-22T11:00:20.661Z,27.55
2016-07-22T11:01:20.651Z,27.58
2016-07-22T11:02:20.645Z,27.58
2016-07-22T11:03:20.644Z,27.55
2016-07-22T11:04:20.627Z,27.55
2016-07-22T11:05:20.612Z,27.49
2016-07-22T11:06:20.608Z,27.48
2016-07-22T11:07:20.600Z,27.39
2016-07-22T11:08:20.589Z,27.47
2016-07-22T11:09:20.577Z,27.45
2016-07-22T11:10:20.579Z,27.4
2016-07-22T11:11:20.564Z,27.26
2016-07-22T11:12:20.553Z,27.14
2016-07-22T11:13:20.551Z,26.99
2016-07-22T11:14:20.541Z,26.95
2016-07-22T11:15:20.526Z,26.9
2016-07-22T11:16:20.529Z,26.95
2016-07-22T11:17:20.507Z,27
2016-07-22T11:18:20.496Z,26.99
2016-07-22T11:19:20.490Z,27.12
2016-07-22T11:20:20.479Z,27.14
2016-07-22T11:21:20.467Z,27.15
2016-07-22T11:22:20.458Z,27.26
2016-07-22T11:23:20.451Z,27.44
2016-07-22T11:24:20.439Z,27.54
2016-07-22T11:25:20.430Z,27.68
2016-07-22T11:26:20.423Z,27.89
2016-07-22T11:27:20.414Z,28.01
2016-07-22T11:28:21.096Z,28.3
2016-07-22T11:29:20.400Z,28.44
2016-07-22T11:30:20.396Z,28.59
2016-07-22T11:31:20.378Z,28.66
2016-07-22T11:32:20.375Z,28.97
2016-07-22T11:33:20.370Z,29.12
2016-07-22T11:34:20.360Z,29.19
2016-07-22T11:35:20.356Z,29.29
2016-07-22T11:36:20.352Z,29.26
2016-07-22T11:37:21.036Z,29.24
2016-07-22T11:38:20.336Z,29.16
2016-07-22T11:39:20.331Z,29.23
2016-07-22T11:40:20.336Z,29.23
2016-07-22T11:41:20.319Z,29.27
2016-07-22T11:42:20.431Z,29.19
2016-07-22T11:43:21.080Z,29.19
2016-07-22T11:44:20.300Z,29.07
2016-07-22T11:45:20.426Z,28.96
2016-07-22T11:46:20.363Z,28.88
2016-07-22T11:47:22.192Z,28.7
2016-07-22T11:48:20.287Z,28.69
2016-07-22T11:49:21.231Z,28.74
2016-07-22T11:50:21.448Z,28.81
2016-07-22T11:51:21.663Z,28.93
2016-07-22T11:52:20.254Z,28.85
2016-07-22T11:53:20.235Z,28.76
2016-07-22T11:54:22.513Z,28.74
2016-07-22T11:55:21.478Z,28.67
2016-07-22T11:56:20.976Z,28.54
2016-07-22T11:57:21.398Z,28.42
2016-07-22T11:58:21.307Z,28.41
2016-07-22T11:59:21.639Z,28.35
2016-07-22T12:00:21.783Z,28.38
2016-07-22T12:01:21.597Z,28.47
2016-07-22T12:02:21.052Z,28.26
2016-07-22T12:03:20.838Z,28.33
2016-07-22T12:04:21.221Z,28.19
2016-07-22T12:05:22.078Z,28.26
2016-07-22T12:06:21.215Z,28.32
2016-07-22T12:07:20.755Z,28.29
2016-07-22T12:08:21.126Z,28.39
2016-07-22T12:09:20.162Z,28.41
2016-07-22T12:10:21.235Z,28.54
2016-07-22T12:11:20.320Z,28.78
2016-07-22T12:12:21.424Z,28.86
2016-07-22T12:13:20.486Z,28.93
2016-07-22T12:14:21.283Z,28.96
2016-07-22T12:15:21.927Z,29.04
2016-07-22T12:16:21.393Z,29.19
2016-07-22T12:17:20.513Z,29.23
2016-07-22T12:18:22.137Z,29.36
2016-07-22T12:19:21.142Z,29.54
2016-07-22T12:20:21.313Z,29.73
2016-07-22T12:21:21.295Z,29.94
2016-07-22T12:22:21.141Z,30.12
2016-07-22T12:23:21.303Z,30.31
2016-07-22T12:24:21.214Z,30.5
2016-07-22T12:25:21.298Z,30.62
2016-07-22T12:26:20.573Z,30.85
2016-07-22T12:27:21.275Z,31.09
2016-07-22T12:28:20.565Z,31.34
2016-07-22T12:29:21.291Z,31.52
2016-07-22T12:30:20.203Z,31.66
2016-07-22T12:31:21.989Z,31.85
2016-07-22T12:32:20.947Z,31.99
2016-07-22T12:33:21.073Z,32.22
2016-07-22T12:34:20.844Z,32.37
2016-07-22T12:35:21.176Z,32.63
2016-07-22T12:36:22.062Z,32.71
2016-07-22T12:37:20.914Z,32.85
2016-07-22T12:38:20.894Z,32.87
2016-07-22T12:39:22.131Z,32.89
2016-07-22T12:40:22.039Z,32.85
2016-07-22T12:41:20.921Z,32.77
2016-07-22T12:42:19.982Z,32.77
2016-07-22T12:43:21.271Z,32.63
2016-07-22T12:44:20.393Z,32.56
2016-07-22T12:45:21.030Z,32.48
2016-07-22T12:46:20.089Z,32.52
2016-07-22T12:47:20.167Z,32.48
2016-07-22T12:48:20.746Z,32.45
2016-07-22T12:49:20.193Z,32.55
2016-07-22T12:50:20.583Z,32.63
2016-07-22T12:51:21.002Z,32.59
2016-07-22T12:52:21.043Z,32.58
2016-07-22T12:53:20.203Z,32.51
2016-07-22T12:54:20.533Z,32.41
2016-07-22T12:55:20.301Z,32.27
2016-07-22T12:56:20.331Z,32.27